Canoas Airport


Codes: SBCO/QNS
Name: Canoas Airport
City: Porto Alegre
Country: Brazil
Elevation: 26 ft.

Photos at Canoas Airport


   Photos courtesy of SpottingLog. You can add your own sightings and photos by signing up for a free trial today.



No photos found.

Weather at Canoas Airport


Time (UTC)DescriptionTempratureWindCloud coverageVisibilityPressureHumidity
25-Jun-2024 12:00Broken Clouds11°C7 mph, SE63%10000m1026hPa79%
25-Jun-2024 15:00Broken Clouds13°C9 mph, SE70%10000m1026hPa69%
25-Jun-2024 18:00Broken Clouds14°C9 mph, SE83%10000m1024hPa60%
25-Jun-2024 21:00Overcast Clouds14°C9 mph, SE95%10000m1022hPa61%
26-Jun-2024 00:00Light Rain13°C7 mph, SE98%10000m1023hPa68%
26-Jun-2024 03:00Light Rain12°C7 mph, E100%10000m1021hPa85%
26-Jun-2024 06:00Light Rain12°C2 mph, SE100%10000m1018hPa92%
26-Jun-2024 09:00Moderate Rain12°C2 mph, NE100%10000m1016hPa94%
26-Jun-2024 12:00Light Rain12°C7 mph, NE100%10000m1017hPa95%
26-Jun-2024 15:00Light Rain12°C9 mph, SW100%10000m1018hPa92%
26-Jun-2024 18:00Light Rain11°C7 mph, SW100%10000m1018hPa89%
26-Jun-2024 21:00Light Rain11°C7 mph, W100%10000m1018hPa91%
27-Jun-2024 00:00Light Rain11°C9 mph, NW100%10000m1018hPa88%
27-Jun-2024 03:00Light Rain10°C9 mph, W97%10000m1019hPa84%
27-Jun-2024 06:00Broken Clouds9°C7 mph, NW74%10000m1018hPa85%
27-Jun-2024 09:00Clear Sky8°C7 mph, NW3%10000m1017hPa87%
27-Jun-2024 12:00Clear Sky10°C7 mph, NW3%10000m1018hPa77%
27-Jun-2024 15:00Broken Clouds15°C9 mph, NW52%10000m1017hPa52%
27-Jun-2024 18:00Scattered Clouds17°C9 mph, NW26%10000m1014hPa47%
27-Jun-2024 21:00Clear Sky14°C4 mph, W10%10000m1013hPa70%
28-Jun-2024 00:00Broken Clouds13°C4 mph, NW52%10000m1013hPa76%
28-Jun-2024 03:00Overcast Clouds12°C4 mph, N95%10000m1010hPa77%
28-Jun-2024 06:00Broken Clouds11°C2 mph, NW56%10000m1009hPa77%
28-Jun-2024 09:00Few Clouds10°C4 mph, NW24%10000m1010hPa82%
28-Jun-2024 12:00Few Clouds12°C7 mph, NW18%10000m1012hPa72%
28-Jun-2024 15:00Light Rain12°C7 mph, W85%10000m1012hPa80%
28-Jun-2024 18:00Light Rain12°C7 mph, NW92%10000m1012hPa85%
28-Jun-2024 21:00Overcast Clouds12°C7 mph, NW100%10000m1014hPa85%
29-Jun-2024 00:00Overcast Clouds11°C4 mph, W100%10000m1017hPa90%
29-Jun-2024 03:00Overcast Clouds12°C4 mph, SW100%10000m1018hPa88%
29-Jun-2024 06:00Overcast Clouds10°C7 mph, SW100%10000m1019hPa79%
29-Jun-2024 09:00Overcast Clouds9°C7 mph, SW100%10000m1021hPa71%
29-Jun-2024 12:00Overcast Clouds9°C7 mph, SW100%10000m1023hPa62%
29-Jun-2024 15:00Overcast Clouds11°C7 mph, SW92%10000m1024hPa44%
29-Jun-2024 18:00Overcast Clouds12°C9 mph, W96%10000m1023hPa42%
29-Jun-2024 21:00Broken Clouds10°C7 mph, W68%10000m1024hPa55%
30-Jun-2024 00:00Broken Clouds8°C7 mph, W57%10000m1026hPa64%
30-Jun-2024 03:00Broken Clouds7°C7 mph, W81%10000m1026hPa68%
30-Jun-2024 06:00Broken Clouds6°C4 mph, NW76%10000m1026hPa75%
30-Jun-2024 09:00Overcast Clouds5°C7 mph, NW100%10000m1027hPa80%